This is the latest recevied weather packets stored in our database for station/object EA2RCU-15. If no packets are shown the sender has not sent any weather packets the latest 1 day(s).
| Time | Temp. | Humidity | Pressure | Rain* | Wind** | Luminosity | Snow |
|---|---|---|---|---|---|---|---|
| 1777998904 | 15° C | 64% | 997 hPa | 3.05 mm | 0 m/s | - | - |
| 1777998604 | 15° C | 63% | 997 hPa | 3.05 mm | 0 m/s | - | - |
| 1777998304 | 15° C | 63% | 997 hPa | 3.05 mm | 0 m/s | - | - |
| 1777998004 | 15° C | 62% | 997 hPa | 3.05 mm | 0 m/s | - | - |
| 1777997704 | 15° C | 63% | 997 hPa | 3.05 mm | 0 m/s | - | - |
| 1777997404 | 15° C | 63% | 997 hPa | 3.05 mm | 0 m/s | - | - |
| 1777997104 | 15° C | 64% | 997 hPa | 3.05 mm | 0 m/s | - | - |
| 1777996804 | 15° C | 64% | 997 hPa | 3.05 mm | 0 m/s | - | - |
| 1777996504 | 14.44° C | 62% | 997 hPa | 3.05 mm | 0 m/s | - | - |
| 1777996205 | 15° C | 58% | 997 hPa | 0 mm | 0 m/s | - | - |
| 1777995904 | 15.56° C | 51% | 997 hPa | 0 mm | 0 m/s | - | - |
| 1777995604 | 16.11° C | 49% | 996 hPa | 0 mm | 0 m/s | - | - |
| 1777995304 | 16.67° C | 48% | 996 hPa | 0 mm | 0 m/s | - | - |
| 1777995004 | 17.22° C | 46% | 996 hPa | 0 mm | 0 m/s | - | - |
| 1777994704 | 18.33° C | 45% | 997 hPa | 0 mm | 0 m/s | - | - |
| 1777994405 | 18.89° C | 46% | 997 hPa | 0 mm | 0 m/s | - | - |
| 1777994105 | 18.33° C | 47% | 997 hPa | 0 mm | 0 m/s | - | - |
| 1777993804 | 18.33° C | 50% | 997 hPa | 0 mm | 0 m/s | - | - |
| 1777993504 | 17.22° C | 53% | 997 hPa | 0 mm | 0 m/s | - | - |
| 1777993204 | 16.67° C | 54% | 997 hPa | 0 mm | 0 m/s | - | - |
| 1777992904 | 16.11° C | 58% | 997 hPa | 0 mm | 0 m/s | - | - |
| 1777992604 | 16.11° C | 57% | 997 hPa | 1.02 mm | 0 m/s | - | - |
| 1777992304 | 16.11° C | 58% | 997 hPa | 1.02 mm | 0 m/s | - | - |
| 1777992004 | 15.56° C | 60% | 997 hPa | 1.02 mm | 0 m/s | - | - |
| 1777991704 | 15.56° C | 59% | 997 hPa | 1.02 mm | 0 m/s | - | - |
* Rain latest hour (hover to see other rain measurements)
** Current wind speed in m/s (hover to see current wind gust speed)